Time;durP1;ratioP1;P1;durP2;ratioP2;P2;SDS_P1;SDS_P2;PMS_P1;PMS_P2;Temp;Humidity;BMP_temperature;BMP_pressure;BME280_temperature;BME280_humidity;BME280_pressure;Samples;Min_cycle;Max_cycle;Signal;HPM_P1;HPM_P2
2024/02/21 00:04:26;;;;;;;6.93;3.67;;;9.80;39.30;;;;;;10450831;28;20290;-74
2024/02/21 00:09:29;;;;;;;6.10;3.03;;;9.80;39.20;;;;;;10450921;28;20237;-74
2024/02/21 00:14:32;;;;;;;6.47;2.90;;;9.80;39.20;;;;;;10450541;28;20235;-74
2024/02/21 00:19:37;;;;;;;6.00;3.20;;;9.80;39.30;;;;;;10447361;28;20312;-74
2024/02/21 00:24:40;;;;;;;5.87;2.80;;;9.80;39.20;;;;;;10450535;28;20317;-74
2024/02/21 00:29:44;;;;;;;4.57;2.70;;;9.70;39.20;;;;;;10448708;28;20249;-74
2024/02/21 00:34:49;;;;;;;7.13;3.20;;;9.70;39.30;;;;;;10450015;28;20229;-74
2024/02/21 00:39:52;;;;;;;6.43;2.87;;;9.70;39.40;;;;;;10449817;28;20235;-74
2024/02/21 00:44:56;;;;;;;5.87;2.90;;;9.70;39.20;;;;;;10449755;28;20221;-74
2024/02/21 00:50:00;;;;;;;6.53;2.90;;;9.70;39.10;;;;;;10449267;28;20319;-74
2024/02/21 00:55:04;;;;;;;7.27;3.00;;;9.70;39.20;;;;;;10448663;28;20228;-74
2024/02/21 01:00:09;;;;;;;6.07;2.70;;;9.70;39.20;;;;;;10432221;28;20232;-74
2024/02/21 01:05:13;;;;;;;5.37;2.50;;;9.60;39.40;;;;;;10448827;28;20388;-74
2024/02/21 01:10:17;;;;;;;5.90;2.70;;;9.50;39.50;;;;;;10448341;28;20229;-74
2024/02/21 01:15:20;;;;;;;5.27;2.53;;;9.40;39.50;;;;;;10447545;28;20233;-74
2024/02/21 01:20:25;;;;;;;3.93;2.40;;;9.40;39.60;;;;;;10447933;28;20344;-74
2024/02/21 01:25:28;;;;;;;4.40;2.70;;;9.40;39.70;;;;;;10448062;28;20233;-74
2024/02/21 01:30:31;;;;;;;4.83;2.77;;;9.40;39.70;;;;;;10447565;28;20603;-74
2024/02/21 01:35:36;;;;;;;5.37;2.50;;;9.40;39.60;;;;;;10419978;28;20234;-74
2024/02/21 01:40:40;;;;;;;5.77;2.77;;;9.40;39.70;;;;;;10432039;28;20225;-74
2024/02/21 01:45:43;;;;;;;4.93;2.87;;;9.30;39.60;;;;;;10446892;28;20232;-74
2024/02/21 01:50:48;;;;;;;4.57;2.30;;;9.30;39.70;;;;;;10446896;28;20229;-74
2024/02/21 01:55:51;;;;;;;7.00;2.50;;;9.30;39.80;;;;;;10447147;28;20235;-74
2024/02/21 02:00:57;;;;;;;5.27;2.47;;;9.30;39.80;;;;;;10443942;28;20241;-74
2024/02/21 02:06:03;;;;;;;5.43;2.40;;;9.30;39.70;;;;;;10446650;28;20275;-74
2024/02/21 02:11:07;;;;;;;3.73;2.47;;;9.30;39.90;;;;;;10443056;28;20271;-74
2024/02/21 02:16:11;;;;;;;4.33;2.37;;;9.20;40.10;;;;;;10437194;28;20235;-74
2024/02/21 02:21:27;;;;;;;6.17;2.80;;;9.20;40.10;;;;;;10437259;28;20248;-74
2024/02/21 02:26:32;;;;;;;5.47;2.30;;;9.10;40.10;;;;;;10437193;28;20694;-74
2024/02/21 02:31:36;;;;;;;5.00;2.57;;;9.10;40.10;;;;;;10438047;28;20235;-74
2024/02/21 02:36:40;;;;;;;6.80;2.47;;;9.10;40.10;;;;;;10462586;28;20224;-74
2024/02/21 02:41:44;;;;;;;5.27;2.30;;;9.10;40.10;;;;;;10436925;28;20237;-74
2024/02/21 02:46:47;;;;;;;4.73;2.30;;;9.10;40.10;;;;;;10437840;28;20229;-74
2024/02/21 02:51:51;;;;;;;6.83;2.23;;;9.20;40.20;;;;;;10439891;28;20230;-74
2024/02/21 02:56:55;;;;;;;5.27;2.40;;;9.20;40.10;;;;;;10444910;28;20304;-74
2024/02/21 03:01:58;;;;;;;3.40;2.20;;;9.30;40.00;;;;;;10445494;28;20311;-74
2024/02/21 03:07:02;;;;;;;4.60;2.20;;;9.20;39.80;;;;;;10444205;28;20301;-74
2024/02/21 03:12:07;;;;;;;6.97;2.60;;;9.30;40.00;;;;;;10448784;28;20229;-74
2024/02/21 03:17:10;;;;;;;6.17;2.00;;;9.30;40.10;;;;;;10452868;28;20316;-74
2024/02/21 03:22:14;;;;;;;6.93;2.50;;;9.30;39.80;;;;;;10453210;28;20240;-74
2024/02/21 03:27:18;;;;;;;5.23;2.50;;;9.20;39.80;;;;;;10452965;28;20366;-74
2024/02/21 03:32:22;;;;;;;5.93;2.70;;;9.20;40.90;;;;;;10452384;28;20600;-74
2024/02/21 03:37:26;;;;;;;5.20;2.67;;;9.20;40.10;;;;;;10452486;28;20255;-74
2024/02/21 03:42:31;;;;;;;6.00;2.90;;;9.10;40.10;;;;;;10452040;28;20229;-74
2024/02/21 03:47:34;;;;;;;3.37;2.30;;;9.10;40.10;;;;;;10451440;28;20233;-74
2024/02/21 03:52:38;;;;;;;4.83;3.03;;;9.00;40.10;;;;;;10452023;28;20324;-74
2024/02/21 03:57:42;;;;;;;4.10;2.33;;;8.90;40.00;;;;;;10450987;28;20324;-74
2024/02/21 04:02:46;;;;;;;6.90;3.13;;;8.90;40.00;;;;;;10441859;28;20260;-74
2024/02/21 04:07:49;;;;;;;5.87;2.90;;;8.90;40.00;;;;;;10451429;28;20225;-74
2024/02/21 04:12:54;;;;;;;5.40;3.00;;;8.90;40.00;;;;;;10449814;28;20229;-74
2024/02/21 04:17:57;;;;;;;6.43;3.10;;;9.00;40.10;;;;;;10450642;28;20231;-74
2024/02/21 04:23:01;;;;;;;3.33;2.33;;;8.90;40.00;;;;;;10450946;28;20221;-74
2024/02/21 04:28:06;;;;;;;5.10;2.60;;;9.00;40.10;;;;;;10450269;28;20291;-74
2024/02/21 04:33:09;;;;;;;5.17;2.20;;;9.00;40.10;;;;;;10450228;28;20612;-74
2024/02/21 04:38:12;;;;;;;3.23;2.13;;;9.00;40.10;;;;;;10449496;28;20271;-74
2024/02/21 04:43:17;;;;;;;4.07;2.20;;;8.90;40.00;;;;;;10449916;28;20229;-74
2024/02/21 04:48:20;;;;;;;5.13;2.30;;;9.00;40.10;;;;;;10449895;28;20263;-74
2024/02/21 04:53:24;;;;;;;4.07;2.13;;;9.00;40.10;;;;;;10449165;28;20308;-74
2024/02/21 04:58:28;;;;;;;3.17;1.87;;;9.00;40.10;;;;;;10447976;28;20233;-74
2024/02/21 05:03:31;;;;;;;3.03;2.10;;;8.90;40.00;;;;;;10446544;28;20224;-74
2024/02/21 05:08:35;;;;;;;3.30;2.00;;;8.90;40.00;;;;;;10446724;28;20291;-74
2024/02/21 05:13:39;;;;;;;3.40;1.93;;;8.90;40.00;;;;;;10445709;28;20312;-74
2024/02/21 05:18:43;;;;;;;4.47;2.43;;;8.80;40.20;;;;;;10446204;28;20260;-74
2024/02/21 05:23:46;;;;;;;4.43;2.07;;;8.80;40.20;;;;;;10446050;28;20334;-74
2024/02/21 05:28:51;;;;;;;13.10;8.67;;;8.80;40.20;;;;;;10445976;28;20228;-74
2024/02/21 05:33:54;;;;;;;11.60;6.07;;;8.90;40.40;;;;;;10445954;28;20229;-74
2024/02/21 05:38:57;;;;;;;5.30;3.10;;;8.80;40.30;;;;;;10445818;28;20232;-74
2024/02/21 05:44:02;;;;;;;5.10;2.50;;;8.90;40.30;;;;;;10445483;28;20320;-73
2024/02/21 05:49:06;;;;;;;4.93;2.40;;;8.90;40.10;;;;;;10425263;28;20248;-74
2024/02/21 05:54:10;;;;;;;4.30;2.90;;;9.00;40.10;;;;;;10445337;28;20240;-74
2024/02/21 05:59:14;;;;;;;4.37;2.20;;;9.00;40.10;;;;;;10397158;28;1154318;-74
2024/02/21 06:04:18;;;;;;;3.00;2.20;;;9.00;40.10;;;;;;10446486;28;20817;-74
2024/02/21 06:09:22;;;;;;;4.20;2.10;;;9.00;40.10;;;;;;10446378;28;20233;-73
2024/02/21 06:14:27;;;;;;;2.83;2.07;;;9.00;40.10;;;;;;10435858;28;20312;-74
2024/02/21 06:19:30;;;;;;;2.93;2.40;;;9.10;40.10;;;;;;10435465;28;20233;-75
2024/02/21 06:24:33;;;;;;;3.37;2.40;;;9.00;40.10;;;;;;10441771;28;20604;-74
2024/02/21 06:29:38;;;;;;;4.47;2.40;;;9.00;40.10;;;;;;10446294;28;20256;-74
2024/02/21 06:34:42;;;;;;;5.10;2.70;;;9.00;40.10;;;;;;10441452;28;20311;-74
2024/02/21 06:39:45;;;;;;;4.53;2.13;;;8.90;40.00;;;;;;10449328;28;20237;-74
2024/02/21 06:44:50;;;;;;;4.17;2.80;;;8.80;40.00;;;;;;10438881;28;20652;-74
2024/02/21 06:49:53;;;;;;;6.67;2.90;;;8.80;40.50;;;;;;10447966;28;20229;-74
2024/02/21 06:54:56;;;;;;;3.83;2.13;;;8.90;40.50;;;;;;10450725;28;20229;-74
2024/02/21 07:00:01;;;;;;;2.67;2.30;;;8.90;40.40;;;;;;10443421;28;20319;-74
2024/02/21 07:05:05;;;;;;;5.60;2.37;;;9.00;40.40;;;;;;10444785;28;20225;-74
2024/02/21 07:10:10;;;;;;;3.83;2.03;;;9.00;40.10;;;;;;10445414;28;20308;-73
2024/02/21 07:15:15;;;;;;;3.30;2.10;;;9.10;40.10;;;;;;10436552;28;20828;-73
2024/02/21 07:20:19;;;;;;;3.43;2.37;;;9.10;40.10;;;;;;10440234;28;20224;-73
2024/02/21 07:25:23;;;;;;;5.77;2.37;;;9.10;40.10;;;;;;10437482;28;20221;-73
2024/02/21 07:30:27;;;;;;;3.83;2.07;;;9.10;40.10;;;;;;10443086;28;20236;-73
2024/02/21 07:35:31;;;;;;;2.50;2.27;;;9.20;40.20;;;;;;10438235;28;20653;-73
2024/02/21 07:40:34;;;;;;;4.53;2.20;;;9.20;40.20;;;;;;10445222;28;20727;-73
2024/02/21 07:45:39;;;;;;;3.70;2.23;;;9.30;40.30;;;;;;10442275;28;20236;-73
2024/02/21 07:50:42;;;;;;;3.90;2.37;;;9.40;40.40;;;;;;10439780;28;20731;-73
2024/02/21 07:55:45;;;;;;;4.00;2.30;;;9.50;40.50;;;;;;10447171;28;20233;-73
2024/02/21 08:00:50;;;;;;;6.23;2.60;;;9.60;40.60;;;;;;10444434;28;20256;-73
2024/02/21 08:05:54;;;;;;;4.57;2.60;;;9.70;40.60;;;;;;10445087;28;20583;-73
2024/02/21 08:10:57;;;;;;;3.63;2.13;;;9.80;40.70;;;;;;10442168;28;20275;-73
2024/02/21 08:16:03;;;;;;;4.17;2.30;;;10.00;39.90;;;;;;10444785;28;20639;-73
2024/02/21 08:21:06;;;;;;;3.57;2.33;;;10.20;40.80;;;;;;10446399;28;20243;-73
2024/02/21 08:26:09;;;;;;;4.73;2.70;;;10.50;39.90;;;;;;10443964;28;20232;-73
2024/02/21 08:31:19;;;;;;;3.57;2.10;;;10.70;39.60;;;;;;10438305;28;20256;-73
2024/02/21 08:36:23;;;;;;;3.43;1.97;;;10.80;38.90;;;;;;10445925;28;20229;-73
2024/02/21 08:41:26;;;;;;;3.63;2.40;;;11.00;39.40;;;;;;10445883;28;20244;-73
2024/02/21 08:46:50;;;;;;;5.33;1.97;;;11.10;39.10;;;;;;10442710;28;20240;-74
2024/02/21 08:51:54;;;;;;;3.70;1.70;;;11.20;39.00;;;;;;10440764;28;20229;-73
2024/02/21 08:56:57;;;;;;;6.20;1.70;;;11.40;38.70;;;;;;10441293;28;20232;-73
2024/02/21 09:02:02;;;;;;;4.87;1.73;;;11.60;38.60;;;;;;10434255;28;20284;-74
2024/02/21 09:07:06;;;;;;;3.50;1.70;;;11.80;38.30;;;;;;10433977;28;22616;-74
2024/02/21 09:12:09;;;;;;;3.57;2.00;;;11.90;38.60;;;;;;10437392;28;20232;-74
2024/02/21 09:17:14;;;;;;;4.03;2.40;;;12.20;38.30;;;;;;10435067;28;20320;-74
2024/02/21 09:22:22;;;;;;;4.40;1.90;;;12.40;37.40;;;;;;10439488;28;20244;-74
2024/02/21 09:27:25;;;;;;;4.57;1.83;;;12.40;37.60;;;;;;10432506;28;20233;-73
2024/02/21 09:32:29;;;;;;;2.73;1.60;;;12.60;37.90;;;;;;10434787;28;20266;-73
2024/02/21 09:37:33;;;;;;;3.07;1.80;;;12.70;37.30;;;;;;10432425;28;20237;-74
2024/02/21 09:42:39;;;;;;;4.73;1.87;;;12.90;37.50;;;;;;10432419;28;20337;-73
2024/02/21 09:47:53;;;;;;;3.83;1.83;;;13.00;36.50;;;;;;10439016;28;20248;-74
2024/02/21 09:52:57;;;;;;;2.43;1.60;;;13.10;35.90;;;;;;10431056;28;20320;-73
2024/02/21 09:58:02;;;;;;;5.53;1.83;;;13.20;36.70;;;;;;10430288;28;20248;-74
2024/02/21 10:03:09;;;;;;;4.07;1.70;;;13.40;37.00;;;;;;10428026;28;20312;-74
2024/02/21 10:08:16;;;;;;;4.67;1.80;;;13.50;36.10;;;;;;10425686;28;20232;-74
2024/02/21 10:13:29;;;;;;;4.00;1.67;;;13.70;35.60;;;;;;10433259;28;20316;-74
2024/02/21 10:18:34;;;;;;;2.50;1.73;;;13.80;34.10;;;;;;10434888;28;20727;-74
2024/02/21 10:23:45;;;;;;;3.50;1.60;;;13.90;35.80;;;;;;10433268;28;20232;-74
2024/02/21 10:28:51;;;;;;;4.50;1.60;;;14.00;34.70;;;;;;10432256;28;20231;-74
2024/02/21 10:33:57;;;;;;;3.90;1.70;;;14.20;36.10;;;;;;10431935;28;20244;-74
2024/02/21 10:39:01;;;;;;;3.07;1.70;;;14.30;35.20;;;;;;10433378;28;20233;-74
2024/02/21 10:44:08;;;;;;;3.07;1.53;;;14.50;35.50;;;;;;10436579;28;20225;-74
2024/02/21 10:49:23;;;;;;;5.17;1.80;;;14.60;34.90;;;;;;10430957;28;20231;-73
2024/02/21 10:54:40;;;;;;;1.73;1.40;;;14.70;33.70;;;;;;10431308;28;20234;-74
2024/02/21 10:59:45;;;;;;;3.73;1.67;;;14.80;31.90;;;;;;10430201;28;20226;-73
2024/02/21 11:04:52;;;;;;;4.27;1.40;;;14.90;35.00;;;;;;10428489;28;20719;-74
2024/02/21 11:09:56;;;;;;;2.50;1.47;;;15.00;33.90;;;;;;10428288;28;20221;-73
2024/02/21 11:15:06;;;;;;;4.67;1.60;;;15.10;34.40;;;;;;10438092;28;20231;-73
2024/02/21 11:20:14;;;;;;;3.10;1.40;;;15.20;33.20;;;;;;10435752;28;20235;-74
2024/02/21 11:25:23;;;;;;;4.10;1.60;;;15.20;33.20;;;;;;10437264;28;20236;-73
2024/02/21 11:30:28;;;;;;;2.43;1.30;;;15.30;32.80;;;;;;10440980;28;20280;-74
2024/02/21 11:35:37;;;;;;;3.40;1.60;;;15.30;32.80;;;;;;10437949;28;20271;-74
2024/02/21 11:40:41;;;;;;;3.17;1.30;;;15.30;32.40;;;;;;10439648;28;20235;-73
2024/02/21 11:45:44;;;;;;;4.20;2.40;;;15.30;33.70;;;;;;10439989;28;20214;-73
2024/02/21 11:50:55;;;;;;;3.20;2.23;;;15.30;33.70;;;;;;10437433;28;20253;-74
2024/02/21 11:55:59;;;;;;;1.80;1.50;;;15.30;31.30;;;;;;10434138;28;20229;-74
2024/02/21 12:01:04;;;;;;;2.53;1.50;;;15.40;33.00;;;;;;10433357;28;20589;-74
2024/02/21 12:06:09;;;;;;;2.27;1.30;;;15.40;32.50;;;;;;10438439;28;20225;-74
2024/02/21 12:11:20;;;;;;;1.43;1.20;;;15.40;32.50;;;;;;10426851;28;20657;-73
2024/02/21 12:16:27;;;;;;;2.47;1.30;;;15.40;31.20;;;;;;10431126;28;20230;-73
2024/02/21 12:21:36;;;;;;;1.67;1.30;;;15.50;32.60;;;;;;10427891;28;20320;-73
2024/02/21 12:26:39;;;;;;;2.90;1.10;;;15.50;31.70;;;;;;10428348;28;20908;-73
2024/02/21 12:31:43;;;;;;;2.10;1.10;;;15.50;32.50;;;;;;10433975;28;20232;-73
2024/02/21 12:36:51;;;;;;;1.30;1.00;;;15.50;32.10;;;;;;10428050;28;20900;-73
2024/02/21 12:41:55;;;;;;;1.83;1.00;;;15.50;31.20;;;;;;10431297;28;20382;-72
2024/02/21 12:46:59;;;;;;;2.53;1.50;;;15.60;32.10;;;;;;10427371;28;20719;-73
2024/02/21 12:52:04;;;;;;;2.17;1.20;;;15.60;32.60;;;;;;10433073;28;20275;-72
2024/02/21 12:57:07;;;;;;;0.97;0.80;;;15.70;31.20;;;;;;10436141;28;20315;-72
2024/02/21 13:02:11;;;;;;;1.23;1.10;;;15.70;31.90;;;;;;10432956;28;20232;-72
2024/02/21 13:07:15;;;;;;;1.07;0.97;;;15.70;31.20;;;;;;10435032;28;20252;-72
2024/02/21 13:12:18;;;;;;;1.57;1.13;;;15.80;30.70;;;;;;10437515;28;20672;-73
2024/02/21 13:17:22;;;;;;;1.10;1.00;;;15.80;31.00;;;;;;10427943;28;20244;-73
2024/02/21 13:22:27;;;;;;;1.20;1.00;;;15.80;30.80;;;;;;10438871;28;20229;-73
2024/02/21 13:27:31;;;;;;;1.17;0.90;;;15.80;29.70;;;;;;10422567;28;20230;-73
2024/02/21 13:32:34;;;;;;;0.90;0.90;;;15.80;30.10;;;;;;10420475;28;20950;-73
2024/02/21 13:37:39;;;;;;;1.20;0.90;;;15.80;30.40;;;;;;10413865;28;20240;-74
2024/02/21 13:42:42;;;;;;;1.30;1.10;;;15.90;29.80;;;;;;10412000;28;20236;-73
2024/02/21 13:47:48;;;;;;;1.13;1.00;;;15.90;30.00;;;;;;10418794;28;20706;-73
2024/02/21 13:52:52;;;;;;;1.13;0.87;;;15.90;30.10;;;;;;10417829;28;20225;-74
2024/02/21 13:57:55;;;;;;;1.40;1.00;;;15.90;29.70;;;;;;10417934;28;20773;-72
2024/02/21 14:03:01;;;;;;;0.80;0.80;;;16.00;30.10;;;;;;10418148;28;20236;-72
2024/02/21 14:08:07;;;;;;;1.30;0.90;;;16.00;29.90;;;;;;10424417;28;20243;-73
2024/02/21 14:13:11;;;;;;;0.87;0.87;;;16.00;28.70;;;;;;10437830;28;20221;-74
2024/02/21 14:18:16;;;;;;;1.67;1.50;;;16.00;29.70;;;;;;10432883;28;20225;-74
2024/02/21 14:23:21;;;;;;;2.13;1.13;;;16.00;29.70;;;;;;10433153;28;20705;-74
2024/02/21 14:28:24;;;;;;;1.50;1.20;;;16.00;28.80;;;;;;10433612;28;20232;-74
2024/02/21 14:33:29;;;;;;;1.10;1.00;;;16.10;29.30;;;;;;10436578;28;20723;-73
2024/02/21 14:38:35;;;;;;;1.30;1.20;;;16.10;29.60;;;;;;10434814;28;21152;-74
2024/02/21 14:43:38;;;;;;;1.20;1.10;;;16.10;29.00;;;;;;10433396;28;20256;-74
2024/02/21 14:48:41;;;;;;;1.00;1.00;;;16.10;29.40;;;;;;10439657;28;20240;-74
2024/02/21 14:53:46;;;;;;;0.97;0.97;;;16.10;29.40;;;;;;10439449;28;20254;-73
2024/02/21 14:58:49;;;;;;;0.90;0.90;;;16.20;29.40;;;;;;10434108;28;20320;-73
2024/02/21 15:03:57;;;;;;;1.00;0.90;;;16.30;29.20;;;;;;10443042;28;20719;-73
2024/02/21 15:09:03;;;;;;;1.10;1.00;;;16.30;29.00;;;;;;10446544;28;20234;-73
2024/02/21 15:14:06;;;;;;;1.40;1.30;;;16.30;28.70;;;;;;10447019;28;20220;-73
2024/02/21 15:19:09;;;;;;;2.13;1.80;;;16.30;29.00;;;;;;10444054;28;20233;-73
2024/02/21 15:24:14;;;;;;;2.77;1.20;;;16.30;29.10;;;;;;10448309;28;20225;-73
2024/02/21 15:29:17;;;;;;;1.03;1.00;;;16.30;28.50;;;;;;10448370;28;20232;-73
2024/02/21 15:34:21;;;;;;;1.30;1.20;;;16.40;28.90;;;;;;10449662;28;20232;-73
2024/02/21 15:39:26;;;;;;;1.20;1.13;;;16.40;29.10;;;;;;10449565;28;20274;-73
2024/02/21 15:44:40;;;;;;;2.67;1.40;;;16.40;28.60;;;;;;10446414;28;20304;-73
2024/02/21 15:49:45;;;;;;;2.30;1.40;;;16.40;27.30;;;;;;10444850;28;20294;-73
2024/02/21 15:54:50;;;;;;;1.40;1.30;;;16.50;29.00;;;;;;10441560;28;20224;-73
2024/02/21 15:59:54;;;;;;;1.33;1.23;;;16.50;29.00;;;;;;10444121;28;20233;-73
2024/02/21 16:04:57;;;;;;;1.27;1.17;;;16.50;29.40;;;;;;10436189;28;20236;-73
2024/02/21 16:10:02;;;;;;;1.20;1.10;;;16.50;29.50;;;;;;10446952;28;20228;-73
2024/02/21 16:15:07;;;;;;;1.30;1.20;;;16.50;29.40;;;;;;10447231;28;20220;-73
2024/02/21 16:20:13;;;;;;;1.17;0.90;;;16.50;29.40;;;;;;10446379;28;20240;-73
2024/02/21 16:25:18;;;;;;;1.33;0.90;;;16.50;29.50;;;;;;10439011;28;20232;-72
2024/02/21 16:30:23;;;;;;;1.73;0.80;;;16.50;29.60;;;;;;10438672;28;20806;-73
2024/02/21 16:35:27;;;;;;;0.90;0.80;;;16.50;29.80;;;;;;10444666;28;20229;-73
2024/02/21 16:40:32;;;;;;;1.33;1.23;;;16.40;29.90;;;;;;10443428;28;20873;-73
2024/02/21 16:45:36;;;;;;;1.80;1.70;;;16.30;29.80;;;;;;10449019;28;20244;-76
2024/02/21 16:50:39;;;;;;;4.90;2.30;;;16.20;30.00;;;;;;10447510;28;20233;-75
2024/02/21 16:55:56;;;;;;;3.90;3.37;;;16.20;30.00;;;;;;10439459;28;20254;-75
2024/02/21 17:01:02;;;;;;;4.90;4.50;;;16.10;30.30;;;;;;10439061;28;20718;-75
2024/02/21 17:06:14;;;;;;;3.80;3.40;;;16.10;30.00;;;;;;10441067;28;20220;-75
2024/02/21 17:11:24;;;;;;;5.03;4.07;;;16.00;31.00;;;;;;10441892;28;20274;-76
2024/02/21 17:16:28;;;;;;;4.60;4.20;;;16.00;30.60;;;;;;10440488;28;20239;-76
2024/02/21 17:21:32;;;;;;;4.47;4.07;;;16.00;30.20;;;;;;10438521;28;20228;-75
2024/02/21 17:26:37;;;;;;;4.53;4.13;;;16.00;30.10;;;;;;10441789;28;20963;-75
2024/02/21 17:31:41;;;;;;;5.93;5.03;;;15.90;29.90;;;;;;10442743;28;20471;-75
2024/02/21 17:36:45;;;;;;;6.33;5.80;;;15.80;30.60;;;;;;10434033;28;20221;-75
2024/02/21 17:41:52;;;;;;;10.30;8.73;;;15.70;29.90;;;;;;10443052;28;20233;-75
2024/02/21 17:46:55;;;;;;;10.90;9.80;;;15.60;29.80;;;;;;10434794;28;20707;-75
2024/02/21 17:51:59;;;;;;;11.77;10.13;;;15.50;30.60;;;;;;10432869;28;20286;-76
2024/02/21 17:57:03;;;;;;;9.47;8.50;;;15.40;29.90;;;;;;10437128;28;20304;-76
2024/02/21 18:02:07;;;;;;;8.70;7.80;;;15.20;29.90;;;;;;10438142;28;20312;-76
2024/02/21 18:07:10;;;;;;;18.07;16.20;;;15.10;29.90;;;;;;10437681;28;20240;-76
2024/02/21 18:12:15;;;;;;;16.03;14.23;;;15.00;30.00;;;;;;10436778;28;20218;-75
2024/02/21 18:17:18;;;;;;;15.27;13.00;;;14.80;29.90;;;;;;10432893;28;20252;-76
2024/02/21 18:22:22;;;;;;;14.00;12.50;;;14.60;30.10;;;;;;10433820;28;20243;-76
2024/02/21 18:27:27;;;;;;;10.83;9.70;;;14.50;30.20;;;;;;10438543;28;20240;-76
2024/02/21 18:32:30;;;;;;;7.83;6.40;;;14.40;30.00;;;;;;10432917;28;20279;-75
2024/02/21 18:37:34;;;;;;;7.53;5.50;;;14.20;30.00;;;;;;10433348;28;20316;-75
2024/02/21 18:42:40;;;;;;;6.17;4.33;;;14.00;30.10;;;;;;10435471;28;20739;-75
2024/02/21 18:47:44;;;;;;;6.13;4.17;;;13.70;30.40;;;;;;10437846;28;20310;-76
2024/02/21 18:52:51;;;;;;;5.20;4.70;;;13.50;30.80;;;;;;10435346;28;20217;-75
2024/02/21 18:57:55;;;;;;;4.93;4.53;;;13.40;30.70;;;;;;10433348;28;20233;-75
2024/02/21 19:02:59;;;;;;;8.43;7.63;;;13.40;30.70;;;;;;10434730;28;20312;-75
2024/02/21 19:08:03;;;;;;;7.27;6.27;;;13.30;30.60;;;;;;10438844;28;20233;-75
2024/02/21 19:13:09;;;;;;;6.47;5.83;;;13.30;30.60;;;;;;10432835;28;20287;-75
2024/02/21 19:18:12;;;;;;;7.23;6.50;;;13.30;30.60;;;;;;10437505;28;20251;-75
2024/02/21 19:23:15;;;;;;;7.50;6.30;;;13.30;30.60;;;;;;10437553;28;20228;-75
2024/02/21 19:28:21;;;;;;;8.03;6.20;;;13.10;30.40;;;;;;10435680;28;20324;-75
2024/02/21 19:33:24;;;;;;;6.23;5.17;;;12.90;30.80;;;;;;10432345;28;20235;-75
2024/02/21 19:38:28;;;;;;;5.60;5.10;;;12.70;31.00;;;;;;10445459;28;20315;-75
2024/02/21 19:43:32;;;;;;;6.13;5.33;;;12.40;31.30;;;;;;10443598;28;20308;-75
2024/02/21 19:48:36;;;;;;;7.17;5.57;;;12.20;31.60;;;;;;10440943;28;20241;-77
2024/02/21 19:53:39;;;;;;;6.87;5.60;;;12.10;31.80;;;;;;10452502;28;20311;-76
2024/02/21 19:58:44;;;;;;;8.77;7.87;;;12.00;31.90;;;;;;10448666;28;20496;-78
2024/02/21 20:03:49;;;;;;;11.70;10.50;;;12.00;31.90;;;;;;10438447;28;20244;-75
2024/02/21 20:08:52;;;;;;;11.90;10.70;;;12.00;31.90;;;;;;10444638;28;20231;-74
2024/02/21 20:13:57;;;;;;;8.60;7.80;;;12.10;31.90;;;;;;10435433;28;20229;-75
2024/02/21 20:19:00;;;;;;;7.00;6.30;;;12.10;31.80;;;;;;10438895;28;20225;-74
2024/02/21 20:24:04;;;;;;;5.57;4.73;;;12.20;31.70;;;;;;10438390;28;20712;-76
2024/02/21 20:29:13;;;;;;;5.97;4.60;;;12.20;31.90;;;;;;10443500;28;20320;-75
2024/02/21 20:34:16;;;;;;;5.73;4.83;;;12.10;32.20;;;;;;10429953;28;20259;-75
2024/02/21 20:39:19;;;;;;;5.60;5.10;;;12.00;32.30;;;;;;10436961;28;20228;-74
2024/02/21 20:44:24;;;;;;;6.17;4.90;;;12.00;33.30;;;;;;10443426;28;20334;-75
2024/02/21 20:49:28;;;;;;;7.67;5.60;;;12.00;32.70;;;;;;10444567;28;20233;-74
2024/02/21 20:54:34;;;;;;;6.53;5.57;;;12.00;32.50;;;;;;10450086;28;20660;-77
2024/02/21 20:59:39;;;;;;;6.87;5.17;;;12.10;32.70;;;;;;10439286;28;20727;-74
2024/02/21 21:04:42;;;;;;;5.97;5.37;;;12.20;32.80;;;;;;10435592;28;20221;-77
2024/02/21 21:09:46;;;;;;;7.13;5.63;;;12.20;32.50;;;;;;10443237;28;20790;-75
2024/02/21 21:14:51;;;;;;;7.87;6.40;;;12.30;32.50;;;;;;10445409;28;20661;-75
2024/02/21 21:19:54;;;;;;;6.63;5.93;;;12.30;32.60;;;;;;10444714;28;20778;-74
2024/02/21 21:24:57;;;;;;;7.37;5.90;;;12.40;32.40;;;;;;10447534;28;20795;-75
2024/02/21 21:30:03;;;;;;;7.87;7.00;;;12.40;32.40;;;;;;10431828;28;20336;-76
2024/02/21 21:35:09;;;;;;;7.20;6.50;;;12.40;32.50;;;;;;10432471;28;20217;-76
2024/02/21 21:40:14;;;;;;;9.47;7.37;;;12.40;32.60;;;;;;10430851;28;20229;-76
2024/02/21 21:45:20;;;;;;;7.50;6.50;;;12.40;32.50;;;;;;10435886;28;20252;-76
2024/02/21 21:50:23;;;;;;;7.63;6.40;;;12.40;32.60;;;;;;10433022;28;20767;-76
2024/02/21 21:55:26;;;;;;;6.60;6.00;;;12.40;32.50;;;;;;10429812;28;20226;-76
2024/02/21 22:00:31;;;;;;;8.17;5.80;;;12.40;32.60;;;;;;10433640;28;20232;-76
2024/02/21 22:05:34;;;;;;;5.50;4.93;;;12.30;32.80;;;;;;10434073;28;20237;-76
2024/02/21 22:10:38;;;;;;;6.03;5.43;;;12.30;32.80;;;;;;10429884;28;20315;-77
2024/02/21 22:15:42;;;;;;;6.47;5.87;;;12.30;32.90;;;;;;10431549;28;20412;-76
2024/02/21 22:20:45;;;;;;;5.77;5.20;;;12.30;33.00;;;;;;10432665;28;20777;-76
2024/02/21 22:25:50;;;;;;;5.70;5.20;;;12.20;33.00;;;;;;10433098;28;20871;-76
2024/02/21 22:30:54;;;;;;;6.63;5.50;;;12.20;33.00;;;;;;10440172;28;20233;-77
2024/02/21 22:35:58;;;;;;;7.30;5.30;;;12.20;33.20;;;;;;10437934;28;20212;-76
2024/02/21 22:41:01;;;;;;;5.87;5.00;;;12.20;33.00;;;;;;10438860;28;20244;-76
2024/02/21 22:46:06;;;;;;;5.87;5.30;;;12.20;33.10;;;;;;10436277;28;20240;-76
2024/02/21 22:51:09;;;;;;;6.73;5.87;;;12.20;33.30;;;;;;10435413;28;20229;-76
2024/02/21 22:56:12;;;;;;;6.40;5.80;;;12.20;33.20;;;;;;10441885;28;20217;-76
2024/02/21 23:01:17;;;;;;;6.47;5.70;;;12.20;33.20;;;;;;10437405;28;20240;-76
2024/02/21 23:06:20;;;;;;;6.17;5.50;;;12.20;33.40;;;;;;10439821;28;20239;-77
2024/02/21 23:11:25;;;;;;;5.60;5.00;;;12.20;33.20;;;;;;10446403;28;20235;-76
2024/02/21 23:16:31;;;;;;;5.90;4.63;;;12.10;33.10;;;;;;10445901;28;20647;-76
2024/02/21 23:21:34;;;;;;;4.20;3.80;;;12.00;33.10;;;;;;10447389;28;20627;-76
2024/02/21 23:26:37;;;;;;;4.33;3.83;;;11.90;33.30;;;;;;10439175;28;20240;-76
2024/02/21 23:31:42;;;;;;;4.63;3.80;;;11.80;33.40;;;;;;10440862;28;20231;-76
2024/02/21 23:36:45;;;;;;;4.30;3.90;;;11.80;33.30;;;;;;10440856;28;20283;-76
2024/02/21 23:41:49;;;;;;;4.23;3.70;;;11.80;33.30;;;;;;10445252;28;20708;-76
2024/02/21 23:46:54;;;;;;;5.07;3.60;;;11.80;33.30;;;;;;10444366;28;20226;-76
2024/02/21 23:51:59;;;;;;;4.77;4.00;;;11.80;33.40;;;;;;10447663;28;20236;-76
2024/02/21 23:57:03;;;;;;;2.70;2.50;;;11.80;33.40;;;;;;10442112;28;20255;-76
